<?xml version="1.0" encoding="UTF-8"?>
<gpx
version="1.1"
creator="Kashmir3D 9.370 - http://www.kashmir3d.com"
xmlns:xsi="http://www.w3.org/2001/XMLSchema-instance"
xmlns="http://www.topografix.com/GPX/1/1"
xmlns:kashmir3d="http://www.kashmir3d.com/namespace/kashmir3d"
xsi:schemaLocation="http://www.topografix.com/GPX/1/1 http://www.topografix.com/GPX/1/1/gpx.xsd
	http://www.kashmir3d.com/namespace/kashmir3d http://www.kashmir3d.com/namespace/kashmir3d.xsd">
<trk>
 <name>NAGARAYAMA_TERRACE.KML(長等山テラス)</name>
 <number>1</number>
 <extensions>
 <kashmir3d:line_color>0000ff</kashmir3d:line_color>
 <kashmir3d:line_size>5</kashmir3d:line_size>
 <kashmir3d:line_style>1</kashmir3d:line_style>
 <kashmir3d:icon>901001</kashmir3d:icon>
 </extensions>
<trkseg>
<trkpt lat="35.022142" lon="135.856688">
 <ele>90.1</ele>
 <time>2022-03-28T12:32:47Z</time>
</trkpt>
<trkpt lat="35.022142" lon="135.856367">
 <ele>90.5</ele>
 <time>2022-03-28T12:32:47Z</time>
</trkpt>
<trkpt lat="35.022159" lon="135.856109">
 <ele>91.8</ele>
 <time>2022-03-28T12:32:47Z</time>
</trkpt>
<trkpt lat="35.022065" lon="135.856055">
 <ele>91.2</ele>
 <time>2022-03-28T12:32:47Z</time>
</trkpt>
<trkpt lat="35.022005" lon="135.855991">
 <ele>92.4</ele>
 <time>2022-03-28T12:32:48Z</time>
</trkpt>
<trkpt lat="35.022039" lon="135.855712">
 <ele>93</ele>
 <time>2022-03-28T12:32:48Z</time>
</trkpt>
<trkpt lat="35.022039" lon="135.855476">
 <ele>93</ele>
 <time>2022-03-28T12:32:48Z</time>
</trkpt>
<trkpt lat="35.022048" lon="135.855219">
 <ele>92.4</ele>
 <time>2022-03-28T12:32:49Z</time>
</trkpt>
<trkpt lat="35.022073" lon="135.855133">
 <ele>92.5</ele>
 <time>2022-03-28T12:32:49Z</time>
</trkpt>
<trkpt lat="35.022228" lon="135.855143">
 <ele>93</ele>
 <time>2022-03-28T12:32:49Z</time>
</trkpt>
<trkpt lat="35.022374" lon="135.855143">
 <ele>93.6</ele>
 <time>2022-03-28T12:32:50Z</time>
</trkpt>
<trkpt lat="35.022580" lon="135.855133">
 <ele>93.9</ele>
 <time>2022-03-28T12:32:50Z</time>
</trkpt>
<trkpt lat="35.022726" lon="135.855143">
 <ele>93.9</ele>
 <time>2022-03-28T12:32:50Z</time>
</trkpt>
<trkpt lat="35.022691" lon="135.854832">
 <ele>93.9</ele>
 <time>2022-03-28T12:32:50Z</time>
</trkpt>
<trkpt lat="35.022691" lon="135.854564">
 <ele>94.1</ele>
 <time>2022-03-28T12:32:51Z</time>
</trkpt>
<trkpt lat="35.022674" lon="135.854242">
 <ele>94.7</ele>
 <time>2022-03-28T12:32:51Z</time>
</trkpt>
<trkpt lat="35.022674" lon="135.853920">
 <ele>96</ele>
 <time>2022-03-28T12:32:51Z</time>
</trkpt>
<trkpt lat="35.022734" lon="135.853641">
 <ele>97.2</ele>
 <time>2022-03-28T12:32:51Z</time>
</trkpt>
<trkpt lat="35.022889" lon="135.853309">
 <ele>98.9</ele>
 <time>2022-03-28T12:32:52Z</time>
</trkpt>
<trkpt lat="35.022966" lon="135.853105">
 <ele>100.2</ele>
 <time>2022-03-28T12:32:52Z</time>
</trkpt>
<trkpt lat="35.023061" lon="135.852923">
 <ele>101.4</ele>
 <time>2022-03-28T12:32:52Z</time>
</trkpt>
<trkpt lat="35.023206" lon="135.852558">
 <ele>104.5</ele>
 <time>2022-03-28T12:32:52Z</time>
</trkpt>
<trkpt lat="35.023352" lon="135.852182">
 <ele>108.7</ele>
 <time>2022-03-28T12:32:52Z</time>
</trkpt>
<trkpt lat="35.023430" lon="135.851978">
 <ele>111.5</ele>
 <time>2022-03-28T12:32:52Z</time>
</trkpt>
<trkpt lat="35.023524" lon="135.851818">
 <ele>112.9</ele>
 <time>2022-03-28T12:32:53Z</time>
</trkpt>
<trkpt lat="35.023696" lon="135.851957">
 <ele>112.5</ele>
 <time>2022-03-28T12:32:53Z</time>
</trkpt>
<trkpt lat="35.023704" lon="135.851818">
 <ele>113.4</ele>
 <time>2022-03-28T12:32:53Z</time>
</trkpt>
<trkpt lat="35.023756" lon="135.851571">
 <ele>115.2</ele>
 <time>2022-03-28T12:32:53Z</time>
</trkpt>
<trkpt lat="35.023807" lon="135.851378">
 <ele>117</ele>
 <time>2022-03-28T12:32:54Z</time>
</trkpt>
<trkpt lat="35.023816" lon="135.851249">
 <ele>120.2</ele>
 <time>2022-03-28T12:32:54Z</time>
</trkpt>
<trkpt lat="35.023756" lon="135.851109">
 <ele>121</ele>
 <time>2022-03-28T12:32:54Z</time>
</trkpt>
<trkpt lat="35.023721" lon="135.850949">
 <ele>122.4</ele>
 <time>2022-03-28T12:32:54Z</time>
</trkpt>
<trkpt lat="35.023721" lon="135.850809">
 <ele>124.2</ele>
 <time>2022-03-28T12:32:55Z</time>
</trkpt>
<trkpt lat="35.023859" lon="135.850766">
 <ele>125.2</ele>
 <time>2022-03-28T12:32:55Z</time>
</trkpt>
<trkpt lat="35.023893" lon="135.850745">
 <ele>125.3</ele>
 <time>2022-03-28T12:32:55Z</time>
</trkpt>
<trkpt lat="35.023790" lon="135.850552">
 <ele>129.3</ele>
 <time>2022-03-28T12:32:55Z</time>
</trkpt>
<trkpt lat="35.023678" lon="135.850434">
 <ele>131.4</ele>
 <time>2022-03-28T12:32:56Z</time>
</trkpt>
<trkpt lat="35.023696" lon="135.850294">
 <ele>133.7</ele>
 <time>2022-03-28T12:32:56Z</time>
</trkpt>
<trkpt lat="35.023773" lon="135.850047">
 <ele>140.6</ele>
 <time>2022-03-28T12:32:56Z</time>
</trkpt>
<trkpt lat="35.023876" lon="135.849715">
 <ele>150.2</ele>
 <time>2022-03-28T12:32:56Z</time>
</trkpt>
<trkpt lat="35.023927" lon="135.849575">
 <ele>153.2</ele>
 <time>2022-03-28T12:32:57Z</time>
</trkpt>
<trkpt lat="35.023979" lon="135.849404">
 <ele>156.8</ele>
 <time>2022-03-28T12:32:57Z</time>
</trkpt>
<trkpt lat="35.024022" lon="135.849253">
 <ele>158.3</ele>
 <time>2022-03-28T12:32:57Z</time>
</trkpt>
<trkpt lat="35.024082" lon="135.849114">
 <ele>157.7</ele>
 <time>2022-03-28T12:32:57Z</time>
</trkpt>
<trkpt lat="35.024151" lon="135.848964">
 <ele>158.3</ele>
 <time>2022-03-28T12:32:58Z</time>
</trkpt>
<trkpt lat="35.024142" lon="135.848760">
 <ele>161</ele>
 <time>2022-03-28T12:32:58Z</time>
</trkpt>
<trkpt lat="35.024142" lon="135.848610">
 <ele>164.1</ele>
 <time>2022-03-28T12:32:58Z</time>
</trkpt>
<trkpt lat="35.024056" lon="135.848642">
 <ele>161.1</ele>
 <time>2022-03-28T12:32:58Z</time>
</trkpt>
<trkpt lat="35.023979" lon="135.848695">
 <ele>159.9</ele>
 <time>2022-03-28T12:32:59Z</time>
</trkpt>
<trkpt lat="35.023979" lon="135.848620">
 <ele>157.8</ele>
 <time>2022-03-28T12:32:59Z</time>
</trkpt>
<trkpt lat="35.024005" lon="135.848492">
 <ele>156.2</ele>
 <time>2022-03-28T12:32:59Z</time>
</trkpt>
<trkpt lat="35.024022" lon="135.848331">
 <ele>155.7</ele>
 <time>2022-03-28T12:32:59Z</time>
</trkpt>
<trkpt lat="35.024022" lon="135.848245">
 <ele>155.8</ele>
 <time>2022-03-28T12:33:00Z</time>
</trkpt>
<trkpt lat="35.023936" lon="135.848223">
 <ele>155.5</ele>
 <time>2022-03-28T12:33:00Z</time>
</trkpt>
<trkpt lat="35.023833" lon="135.848352">
 <ele>156.3</ele>
 <time>2022-03-28T12:33:00Z</time>
</trkpt>
<trkpt lat="35.023739" lon="135.848459">
 <ele>160.5</ele>
 <time>2022-03-28T12:33:00Z</time>
</trkpt>
<trkpt lat="35.023739" lon="135.848266">
 <ele>165.5</ele>
 <time>2022-03-28T12:33:00Z</time>
</trkpt>
<trkpt lat="35.023610" lon="135.848191">
 <ele>173.7</ele>
 <time>2022-03-28T12:33:00Z</time>
</trkpt>
<trkpt lat="35.023490" lon="135.847923">
 <ele>181.5</ele>
 <time>2022-03-28T12:33:01Z</time>
</trkpt>
<trkpt lat="35.023378" lon="135.847644">
 <ele>184.1</ele>
 <time>2022-03-28T12:33:01Z</time>
</trkpt>
<trkpt lat="35.023232" lon="135.847226">
 <ele>193</ele>
 <time>2022-03-28T12:33:01Z</time>
</trkpt>
<trkpt lat="35.023112" lon="135.846882">
 <ele>201.6</ele>
 <time>2022-03-28T12:33:01Z</time>
</trkpt>
<trkpt lat="35.022949" lon="135.846571">
 <ele>212</ele>
 <time>2022-03-28T12:33:02Z</time>
</trkpt>
<trkpt lat="35.022812" lon="135.846475">
 <ele>223.5</ele>
 <time>2022-03-28T12:33:02Z</time>
</trkpt>
<trkpt lat="35.022649" lon="135.846335">
 <ele>233.9</ele>
 <time>2022-03-28T12:33:02Z</time>
</trkpt>
<trkpt lat="35.022520" lon="135.846206">
 <ele>240.3</ele>
 <time>2022-03-28T12:33:02Z</time>
</trkpt>
<trkpt lat="35.022357" lon="135.846078">
 <ele>240</ele>
 <time>2022-03-28T12:33:03Z</time>
</trkpt>
<trkpt lat="35.022262" lon="135.845992">
 <ele>245</ele>
 <time>2022-03-28T12:33:03Z</time>
</trkpt>
<trkpt lat="35.022159" lon="135.845884">
 <ele>250.1</ele>
 <time>2022-03-28T12:33:03Z</time>
</trkpt>
<trkpt lat="35.022134" lon="135.845498">
 <ele>260.7</ele>
 <time>2022-03-28T12:33:04Z</time>
</trkpt>
<trkpt lat="35.022159" lon="135.845273">
 <ele>263.3</ele>
 <time>2022-03-28T12:33:04Z</time>
</trkpt>
<trkpt lat="35.022065" lon="135.845262">
 <ele>265.4</ele>
 <time>2022-03-28T12:33:04Z</time>
</trkpt>
<trkpt lat="35.021816" lon="135.845219">
 <ele>270</ele>
 <time>2022-03-28T12:33:04Z</time>
</trkpt>
<trkpt lat="35.021593" lon="135.845144">
 <ele>278.8</ele>
 <time>2022-03-28T12:33:05Z</time>
</trkpt>
<trkpt lat="35.021301" lon="135.844994">
 <ele>289.9</ele>
 <time>2022-03-28T12:33:05Z</time>
</trkpt>
<trkpt lat="35.020966" lon="135.844769">
 <ele>298.9</ele>
 <time>2022-03-28T12:33:05Z</time>
</trkpt>
<trkpt lat="35.020812" lon="135.844715">
 <ele>312.5</ele>
 <time>2022-03-28T12:33:05Z</time>
</trkpt>
<trkpt lat="35.020606" lon="135.844640">
 <ele>324.3</ele>
 <time>2022-03-28T12:33:06Z</time>
</trkpt>
<trkpt lat="35.020511" lon="135.844479">
 <ele>328.7</ele>
 <time>2022-03-28T12:33:06Z</time>
</trkpt>
<trkpt lat="35.020529" lon="135.844415">
 <ele>328.8</ele>
 <time>2022-03-28T12:33:06Z</time>
</trkpt>
<trkpt lat="35.020511" lon="135.844479">
 <ele>328.7</ele>
 <time>2022-03-28T12:33:06Z</time>
</trkpt>
<trkpt lat="35.020606" lon="135.844640">
 <ele>324.3</ele>
 <time>2022-03-28T12:33:06Z</time>
</trkpt>
<trkpt lat="35.020812" lon="135.844715">
 <ele>312.5</ele>
 <time>2022-03-28T12:33:07Z</time>
</trkpt>
<trkpt lat="35.020966" lon="135.844769">
 <ele>298.9</ele>
 <time>2022-03-28T12:33:07Z</time>
</trkpt>
<trkpt lat="35.021301" lon="135.844994">
 <ele>289.9</ele>
 <time>2022-03-28T12:33:07Z</time>
</trkpt>
<trkpt lat="35.021593" lon="135.845144">
 <ele>278.8</ele>
 <time>2022-03-28T12:33:07Z</time>
</trkpt>
<trkpt lat="35.021816" lon="135.845219">
 <ele>270</ele>
 <time>2022-03-28T12:33:07Z</time>
</trkpt>
<trkpt lat="35.022065" lon="135.845262">
 <ele>265.4</ele>
 <time>2022-03-28T12:33:07Z</time>
</trkpt>
<trkpt lat="35.022159" lon="135.845273">
 <ele>263.3</ele>
 <time>2022-03-28T12:33:08Z</time>
</trkpt>
<trkpt lat="35.022134" lon="135.845498">
 <ele>260.7</ele>
 <time>2022-03-28T12:33:08Z</time>
</trkpt>
<trkpt lat="35.022159" lon="135.845884">
 <ele>250.1</ele>
 <time>2022-03-28T12:33:08Z</time>
</trkpt>
<trkpt lat="35.022262" lon="135.845992">
 <ele>245</ele>
 <time>2022-03-28T12:33:08Z</time>
</trkpt>
<trkpt lat="35.022357" lon="135.846078">
 <ele>240</ele>
 <time>2022-03-28T12:33:08Z</time>
</trkpt>
<trkpt lat="35.022520" lon="135.846206">
 <ele>240.3</ele>
 <time>2022-03-28T12:33:08Z</time>
</trkpt>
<trkpt lat="35.022649" lon="135.846335">
 <ele>233.9</ele>
 <time>2022-03-28T12:33:09Z</time>
</trkpt>
<trkpt lat="35.022812" lon="135.846475">
 <ele>223.5</ele>
 <time>2022-03-28T12:33:09Z</time>
</trkpt>
<trkpt lat="35.022949" lon="135.846571">
 <ele>212</ele>
 <time>2022-03-28T12:33:09Z</time>
</trkpt>
<trkpt lat="35.023112" lon="135.846882">
 <ele>201.6</ele>
 <time>2022-03-28T12:33:09Z</time>
</trkpt>
<trkpt lat="35.023232" lon="135.847226">
 <ele>193</ele>
 <time>2022-03-28T12:33:09Z</time>
</trkpt>
<trkpt lat="35.023378" lon="135.847644">
 <ele>184.1</ele>
 <time>2022-03-28T12:33:09Z</time>
</trkpt>
<trkpt lat="35.023490" lon="135.847923">
 <ele>181.5</ele>
 <time>2022-03-28T12:33:10Z</time>
</trkpt>
<trkpt lat="35.023610" lon="135.848191">
 <ele>173.7</ele>
 <time>2022-03-28T12:33:10Z</time>
</trkpt>
<trkpt lat="35.023739" lon="135.848266">
 <ele>165.5</ele>
 <time>2022-03-28T12:33:10Z</time>
</trkpt>
<trkpt lat="35.023739" lon="135.848459">
 <ele>160.5</ele>
 <time>2022-03-28T12:33:10Z</time>
</trkpt>
<trkpt lat="35.023833" lon="135.848352">
 <ele>156.3</ele>
 <time>2022-03-28T12:33:10Z</time>
</trkpt>
<trkpt lat="35.023936" lon="135.848223">
 <ele>155.5</ele>
 <time>2022-03-28T12:33:10Z</time>
</trkpt>
<trkpt lat="35.024022" lon="135.848245">
 <ele>155.8</ele>
 <time>2022-03-28T12:33:11Z</time>
</trkpt>
<trkpt lat="35.024022" lon="135.848331">
 <ele>155.7</ele>
 <time>2022-03-28T12:33:11Z</time>
</trkpt>
<trkpt lat="35.024005" lon="135.848492">
 <ele>156.2</ele>
 <time>2022-03-28T12:33:11Z</time>
</trkpt>
<trkpt lat="35.023979" lon="135.848620">
 <ele>157.8</ele>
 <time>2022-03-28T12:33:11Z</time>
</trkpt>
<trkpt lat="35.023979" lon="135.848695">
 <ele>159.9</ele>
 <time>2022-03-28T12:33:11Z</time>
</trkpt>
<trkpt lat="35.024056" lon="135.848642">
 <ele>161.1</ele>
 <time>2022-03-28T12:33:12Z</time>
</trkpt>
<trkpt lat="35.024142" lon="135.848610">
 <ele>164.1</ele>
 <time>2022-03-28T12:33:12Z</time>
</trkpt>
<trkpt lat="35.024142" lon="135.848760">
 <ele>161</ele>
 <time>2022-03-28T12:33:12Z</time>
</trkpt>
<trkpt lat="35.024151" lon="135.848964">
 <ele>158.3</ele>
 <time>2022-03-28T12:33:12Z</time>
</trkpt>
<trkpt lat="35.024082" lon="135.849114">
 <ele>157.7</ele>
 <time>2022-03-28T12:33:12Z</time>
</trkpt>
<trkpt lat="35.024022" lon="135.849253">
 <ele>158.3</ele>
 <time>2022-03-28T12:33:13Z</time>
</trkpt>
<trkpt lat="35.023979" lon="135.849404">
 <ele>156.8</ele>
 <time>2022-03-28T12:33:13Z</time>
</trkpt>
<trkpt lat="35.023927" lon="135.849575">
 <ele>153.2</ele>
 <time>2022-03-28T12:33:13Z</time>
</trkpt>
<trkpt lat="35.023876" lon="135.849715">
 <ele>150.2</ele>
 <time>2022-03-28T12:33:13Z</time>
</trkpt>
<trkpt lat="35.023773" lon="135.850047">
 <ele>140.6</ele>
 <time>2022-03-28T12:33:13Z</time>
</trkpt>
<trkpt lat="35.023696" lon="135.850294">
 <ele>133.7</ele>
 <time>2022-03-28T12:33:13Z</time>
</trkpt>
<trkpt lat="35.023678" lon="135.850434">
 <ele>131.4</ele>
 <time>2022-03-28T12:33:14Z</time>
</trkpt>
<trkpt lat="35.023790" lon="135.850552">
 <ele>129.3</ele>
 <time>2022-03-28T12:33:14Z</time>
</trkpt>
<trkpt lat="35.023893" lon="135.850745">
 <ele>125.3</ele>
 <time>2022-03-28T12:33:14Z</time>
</trkpt>
<trkpt lat="35.023859" lon="135.850766">
 <ele>125.2</ele>
 <time>2022-03-28T12:33:14Z</time>
</trkpt>
<trkpt lat="35.023721" lon="135.850809">
 <ele>124.2</ele>
 <time>2022-03-28T12:33:14Z</time>
</trkpt>
<trkpt lat="35.023721" lon="135.850949">
 <ele>122.4</ele>
 <time>2022-03-28T12:33:14Z</time>
</trkpt>
<trkpt lat="35.023756" lon="135.851109">
 <ele>121</ele>
 <time>2022-03-28T12:33:15Z</time>
</trkpt>
<trkpt lat="35.023816" lon="135.851249">
 <ele>120.2</ele>
 <time>2022-03-28T12:33:15Z</time>
</trkpt>
<trkpt lat="35.023807" lon="135.851378">
 <ele>117</ele>
 <time>2022-03-28T12:33:15Z</time>
</trkpt>
<trkpt lat="35.023756" lon="135.851571">
 <ele>115.2</ele>
 <time>2022-03-28T12:33:15Z</time>
</trkpt>
<trkpt lat="35.023704" lon="135.851818">
 <ele>113.4</ele>
 <time>2022-03-28T12:33:15Z</time>
</trkpt>
<trkpt lat="35.023696" lon="135.851957">
 <ele>112.5</ele>
 <time>2022-03-28T12:33:15Z</time>
</trkpt>
<trkpt lat="35.023524" lon="135.851818">
 <ele>112.9</ele>
 <time>2022-03-28T12:33:16Z</time>
</trkpt>
<trkpt lat="35.023430" lon="135.851978">
 <ele>111.5</ele>
 <time>2022-03-28T12:33:16Z</time>
</trkpt>
<trkpt lat="35.023352" lon="135.852182">
 <ele>108.7</ele>
 <time>2022-03-28T12:33:16Z</time>
</trkpt>
<trkpt lat="35.023206" lon="135.852558">
 <ele>104.5</ele>
 <time>2022-03-28T12:33:16Z</time>
</trkpt>
<trkpt lat="35.023061" lon="135.852923">
 <ele>101.4</ele>
 <time>2022-03-28T12:33:16Z</time>
</trkpt>
<trkpt lat="35.022966" lon="135.853105">
 <ele>100.2</ele>
 <time>2022-03-28T12:33:16Z</time>
</trkpt>
<trkpt lat="35.022889" lon="135.853309">
 <ele>98.9</ele>
 <time>2022-03-28T12:33:17Z</time>
</trkpt>
<trkpt lat="35.022734" lon="135.853641">
 <ele>97.2</ele>
 <time>2022-03-28T12:33:17Z</time>
</trkpt>
<trkpt lat="35.022674" lon="135.853920">
 <ele>96</ele>
 <time>2022-03-28T12:33:17Z</time>
</trkpt>
<trkpt lat="35.022674" lon="135.854242">
 <ele>94.7</ele>
 <time>2022-03-28T12:33:17Z</time>
</trkpt>
<trkpt lat="35.022691" lon="135.854564">
 <ele>94.1</ele>
 <time>2022-03-28T12:33:17Z</time>
</trkpt>
<trkpt lat="35.022691" lon="135.854832">
 <ele>93.9</ele>
 <time>2022-03-28T12:33:17Z</time>
</trkpt>
<trkpt lat="35.022726" lon="135.855143">
 <ele>93.9</ele>
 <time>2022-03-28T12:33:18Z</time>
</trkpt>
<trkpt lat="35.022580" lon="135.855133">
 <ele>93.9</ele>
 <time>2022-03-28T12:33:18Z</time>
</trkpt>
<trkpt lat="35.022374" lon="135.855143">
 <ele>93.6</ele>
 <time>2022-03-28T12:33:18Z</time>
</trkpt>
<trkpt lat="35.022228" lon="135.855143">
 <ele>93</ele>
 <time>2022-03-28T12:33:18Z</time>
</trkpt>
<trkpt lat="35.022073" lon="135.855133">
 <ele>92.5</ele>
 <time>2022-03-28T12:33:19Z</time>
</trkpt>
<trkpt lat="35.022048" lon="135.855219">
 <ele>92.4</ele>
 <time>2022-03-28T12:33:19Z</time>
</trkpt>
<trkpt lat="35.022039" lon="135.855476">
 <ele>93</ele>
 <time>2022-03-28T12:33:19Z</time>
</trkpt>
<trkpt lat="35.022039" lon="135.855712">
 <ele>93</ele>
 <time>2022-03-28T12:33:19Z</time>
</trkpt>
<trkpt lat="35.022005" lon="135.855991">
 <ele>92.4</ele>
 <time>2022-03-28T12:33:19Z</time>
</trkpt>
<trkpt lat="35.022065" lon="135.856055">
 <ele>91.2</ele>
 <time>2022-03-28T12:33:19Z</time>
</trkpt>
<trkpt lat="35.022159" lon="135.856109">
 <ele>91.8</ele>
 <time>2022-03-28T12:33:20Z</time>
</trkpt>
<trkpt lat="35.022142" lon="135.856367">
 <ele>90.5</ele>
 <time>2022-03-28T12:33:20Z</time>
</trkpt>
<trkpt lat="35.022142" lon="135.856688">
 <ele>90.1</ele>
 <time>2022-03-28T12:33:20Z</time>
</trkpt>
</trkseg>
</trk>
</gpx>

